Millenium Air

Millenium Air Since 1998



 METAR AND TAF INFORMATION
METAR FOR LFBT
ADDS - METARS form results

(0535 UTC 02 March 2021)
Data provider http://aviationweather.gov/metar/data/
 
METAR text: LFBT 020530Z AUTO 17006KT CAVOK 07/05 Q1024 NOSIG
Conditions at: LFBT (TARBES/OSSUN , FR) observed 0530 UTC 02 March 2021
Temperature: 7.0°C (45°F)
Dewpoint: 5.0°C (41°F) [RH = 87%]
Pressure (altimeter): 30.24 inches Hg (1024.0 mb)
Winds: from the S (170 degrees) at 7 MPH (6 knots; 3.1 m/s)
Visibility: 6 or more miles (10+ km)
Ceiling: ceiling and visibility are OK
Clouds: unknown
Weather: no significant weather observed at this time

METAR text: LFBT 020500Z AUTO 17005KT CAVOK 07/04 Q1023 NOSIG
Conditions at: LFBT (TARBES/OSSUN , FR) observed 0500 UTC 02 March 2021
Temperature: 7.0°C (45°F)
Dewpoint: 4.0°C (39°F) [RH = 81%]
Pressure (altimeter): 30.21 inches Hg (1023.0 mb)
Winds: from the S (170 degrees) at 6 MPH (5 knots; 2.6 m/s)
Visibility: 6 or more miles (10+ km)
Ceiling: ceiling and visibility are OK
Clouds: unknown
Weather: no significant weather observed at this time

Forecast for: LFBT (TARBES/OSSUN , FR)
Text: TAF LFBT 012300Z 0200/0224 VRB03KT CAVOK
Forecast period: 0000 UTC 02 March 2021 to 0000 UTC 03 March 2021
Forecast type: FROM: standard forecast or significant change
Winds: variable direction winds at 3 MPH (3 knots; 1.5 m/s)
Visibility: 6 or more miles (10+ km)
Ceiling: unknown
Clouds: missing
Weather: NSW  (no significant weather)
Text: TEMPO 0201/0205 FEW060TCU BKN120
Forecast period: 0100 to 0500 UTC 02 March 2021
Forecast type: TEMPORARY: The following changes expected for less than half the time period
Visibility: missing
Ceiling: 12000 feet AGL
Clouds: few clouds at 6000 feet AGL
broken clouds at 12000 feet AGL
Weather: no significant weather forecast for this period

 AIRPORT MAP

 RUNWAY INFORMATION
Runway 02 Runway length 9843 ft Runway width 148 ft
Runway elevation 1238 ft Runway displaced threshold 2199 ft Runway heading 20
Runway 20 Runway length 9843 ft Runway width 148 ft
Runway elevation 1170 ft Runway displaced threshold 0 ft Runway heading 200

 AIRPORT FREQUENCIES
Type APP Name APP Frequency 120.3 MHZ
Type APP Name PYRENEES A Frequency 121.175 MHZ
Type ATIS Name ATIS Frequency 125.95 MHZ
Type GND Name GND Frequency 121.8 MHZ
Type TWR Name TWR Frequency 119.05 MHZ

 AIRPORT NEAR NAVIGATION AIDS
Type VOR Name Lahitte Frequency 111800 KHZ
Type VOR Name Tarbes Frequency 113900 KHZ
Type NDB Name Tarbes Frequency 321 KHZ